Time;durP1;ratioP1;P1;durP2;ratioP2;P2;SDS_P1;SDS_P2;PMS_P1;PMS_P2;Temp;Humidity;BMP_temperature;BMP_pressure;BME280_temperature;BME280_humidity;BME280_pressure;Samples;Min_cycle;Max_cycle;Signal;HPM_P1;HPM_P2
2022/05/06 00:01:38;;;;;;;4.47;3.95;;;;;;;14.26;53.70;95488.03;4955433;28;20224;-68
2022/05/06 00:04:05;;;;;;;4.35;3.88;;;;;;;14.26;53.75;95488.84;4968349;28;20307;-68
2022/05/06 00:06:32;;;;;;;3.60;3.30;;;;;;;14.26;53.80;95490.66;4971511;28;20223;-68
2022/05/06 00:08:57;;;;;;;3.97;3.28;;;;;;;14.25;53.58;95495.13;4969586;28;20213;-68
2022/05/06 00:11:24;;;;;;;4.03;3.72;;;;;;;14.25;53.51;95503.06;4968643;28;20227;-68
2022/05/06 00:13:52;;;;;;;4.57;3.70;;;;;;;14.11;53.89;95501.03;4977855;28;20216;-68
2022/05/06 00:16:19;;;;;;;4.15;3.63;;;;;;;14.10;54.09;95496.75;4954184;28;20232;-69
2022/05/06 00:18:44;;;;;;;4.22;3.83;;;;;;;14.07;53.81;95495.25;4979204;28;20319;-68
2022/05/06 00:21:10;;;;;;;4.25;3.90;;;;;;;14.11;53.89;95498.38;4969988;28;20316;-68
2022/05/06 00:23:35;;;;;;;4.03;3.70;;;;;;;14.11;53.74;95503.69;4975129;28;20252;-67
2022/05/06 00:26:03;;;;;;;4.25;3.60;;;;;;;14.00;54.21;95498.69;4977331;28;20224;-68
2022/05/06 00:28:28;;;;;;;3.95;3.53;;;;;;;14.01;54.13;95506.47;4973873;28;20307;-68
2022/05/06 00:30:54;;;;;;;4.30;3.90;;;;;;;13.96;54.34;95511.41;4963407;28;20845;-69
2022/05/06 00:33:24;;;;;;;4.35;3.95;;;;;;;13.95;54.12;95501.81;4947990;28;20303;-68
2022/05/06 00:35:53;;;;;;;4.20;3.90;;;;;;;13.92;54.34;95510.06;4964492;28;20260;-68
2022/05/06 00:38:18;;;;;;;4.28;3.80;;;;;;;13.85;54.60;95504.59;4964010;28;20227;-68
2022/05/06 00:40:44;;;;;;;4.65;4.25;;;;;;;13.90;54.59;95514.72;4973469;28;20243;-68
2022/05/06 00:43:10;;;;;;;4.22;3.92;;;;;;;13.98;54.33;95509.44;4971181;28;20228;-62
2022/05/06 00:46:00;;;;;;;5.47;4.03;;;;;;;13.93;54.42;95500.34;4971313;28;20220;-65
2022/05/06 00:48:35;;;;;;;5.15;4.25;;;;;;;13.96;54.59;95502.66;4978346;28;20243;-63
2022/05/06 00:51:04;;;;;;;4.97;4.22;;;;;;;14.02;54.44;95507.31;4965526;28;20235;-65
2022/05/06 00:53:30;;;;;;;4.80;4.32;;;;;;;13.98;54.56;95511.25;4961514;28;20232;-64
2022/05/06 00:55:56;;;;;;;6.13;5.10;;;;;;;13.96;55.06;95506.13;4972050;28;20243;-63
2022/05/06 00:58:29;;;;;;;4.88;4.47;;;;;;;13.99;54.60;95516.38;4972947;28;20605;-63
2022/05/06 01:00:54;;;;;;;5.97;5.10;;;;;;;13.98;54.94;95504.16;4973194;28;20243;-63
2022/05/06 01:03:20;;;;;;;5.47;4.90;;;;;;;13.97;54.74;95513.06;4973069;28;20258;-63
2022/05/06 01:05:45;;;;;;;5.63;5.15;;;;;;;13.94;54.95;95505.47;4982793;28;20235;-62
2022/05/06 01:08:11;;;;;;;6.63;5.10;;;;;;;13.86;55.16;95510.72;4965216;28;20224;-62
2022/05/06 01:10:37;;;;;;;7.10;5.40;;;;;;;13.85;55.84;95514.38;4968614;28;20316;-62
2022/05/06 01:13:02;;;;;;;5.75;5.25;;;;;;;13.86;55.44;95508.06;4970518;28;20240;-63
2022/05/06 01:15:29;;;;;;;6.18;5.68;;;;;;;13.78;55.79;95510.69;4962036;28;20236;-62
2022/05/06 01:17:56;;;;;;;6.80;6.25;;;;;;;13.81;56.01;95513.84;4962172;28;20208;-62
2022/05/06 01:20:23;;;;;;;6.65;5.60;;;;;;;13.81;56.28;95511.19;4981486;28;20234;-62
2022/05/06 01:22:53;;;;;;;6.47;5.85;;;;;;;13.87;55.63;95507.94;4980229;28;20270;-63
2022/05/06 01:25:20;;;;;;;6.03;5.47;;;;;;;13.85;55.95;95517.00;4986082;28;20613;-63
2022/05/06 01:27:57;;;;;;;6.68;6.07;;;;;;;13.69;56.49;95517.75;4973509;28;20308;-62
2022/05/06 01:30:44;;;;;;;6.28;5.68;;;;;;;13.78;56.35;95508.03;4965320;28;20204;-63
2022/05/06 01:33:11;;;;;;;6.45;5.85;;;;;;;13.77;56.18;95514.34;4971983;28;20319;-62
2022/05/06 01:35:40;;;;;;;6.50;5.60;;;;;;;13.78;56.22;95503.59;4975349;28;20232;-62
2022/05/06 01:38:06;;;;;;;7.10;6.50;;;;;;;13.73;56.41;95507.69;4982621;28;20318;-63
2022/05/06 01:40:43;;;;;;;6.70;6.10;;;;;;;13.72;56.24;95501.59;4984390;28;20249;-62
2022/05/06 01:43:15;;;;;;;6.90;6.25;;;;;;;13.67;56.18;95493.31;4979955;28;20249;-62
2022/05/06 01:45:43;;;;;;;7.22;6.55;;;;;;;13.72;56.36;95504.22;4964746;28;20239;-62
2022/05/06 01:48:09;;;;;;;7.57;6.88;;;;;;;13.76;56.13;95494.97;4968005;28;20207;-62
2022/05/06 01:50:38;;;;;;;7.50;6.90;;;;;;;13.69;56.38;95493.97;4966199;28;20282;-62
2022/05/06 01:53:07;;;;;;;7.63;7.03;;;;;;;13.66;56.61;95491.66;4952136;28;20643;-63
2022/05/06 01:55:32;;;;;;;7.63;6.93;;;;;;;13.53;56.98;95502.66;4978065;28;20259;-62
2022/05/06 01:57:58;;;;;;;7.93;7.30;;;;;;;13.58;57.06;95500.38;4993596;28;20259;-62
2022/05/06 02:00:24;;;;;;;8.40;7.57;;;;;;;13.66;56.63;95500.41;4976633;28;20207;-62
2022/05/06 02:02:49;;;;;;;7.88;7.13;;;;;;;13.64;56.71;95498.91;4974573;28;20223;-63
2022/05/06 02:05:19;;;;;;;7.25;6.72;;;;;;;13.61;56.91;95515.91;4974694;28;20232;-62
2022/05/06 02:07:49;;;;;;;7.10;6.28;;;;;;;13.62;56.78;95511.44;4982447;28;20234;-62
2022/05/06 02:10:16;;;;;;;7.25;6.60;;;;;;;13.62;56.62;95503.53;4984254;28;20229;-63
2022/05/06 02:12:41;;;;;;;7.38;6.68;;;;;;;13.61;56.65;95500.06;4985698;28;20208;-63
2022/05/06 02:15:08;;;;;;;7.40;6.70;;;;;;;13.58;56.79;95510.09;4992394;28;20216;-63
2022/05/06 02:17:34;;;;;;;7.63;6.93;;;;;;;13.46;57.00;95515.66;4977451;28;20274;-62
2022/05/06 02:19:59;;;;;;;7.00;6.30;;;;;;;13.46;56.89;95509.56;4974317;28;20221;-62
2022/05/06 02:22:27;;;;;;;6.60;6.07;;;;;;;13.53;56.68;95512.41;4967990;28;20287;-63
2022/05/06 02:24:55;;;;;;;7.13;6.30;;;;;;;13.53;56.77;95517.69;4965104;28;20217;-62
2022/05/06 02:27:21;;;;;;;6.78;6.07;;;;;;;13.51;56.74;95517.00;4968647;28;20201;-62
2022/05/06 02:35:15;;;;;;;6.47;5.88;;;;;;;13.41;56.77;95507.38;4965996;28;20246;-63
2022/05/06 02:37:42;;;;;;;6.80;6.18;;;;;;;13.39;56.86;95506.72;4963086;28;20220;-62
2022/05/06 02:40:13;;;;;;;6.65;5.97;;;;;;;13.34;56.99;95502.88;4964095;28;20272;-62
2022/05/06 02:42:39;;;;;;;7.25;6.63;;;;;;;13.35;56.85;95499.25;4963321;28;20224;-63
2022/05/06 02:45:05;;;;;;;6.68;6.18;;;;;;;13.36;56.79;95507.00;4970836;28;20240;-62
2022/05/06 02:47:30;;;;;;;6.68;6.05;;;;;;;13.34;56.83;95502.88;4977604;28;20223;-62
2022/05/06 02:49:56;;;;;;;7.60;6.80;;;;;;;13.32;56.91;95507.50;4976600;28;20255;-63
2022/05/06 02:52:24;;;;;;;7.38;6.68;;;;;;;13.23;57.24;95502.16;4990808;28;20307;-62
2022/05/06 02:54:50;;;;;;;7.18;6.57;;;;;;;13.25;57.29;95505.44;4986846;28;20223;-63
2022/05/06 02:57:15;;;;;;;6.60;6.00;;;;;;;13.30;56.92;95510.28;4971295;28;20446;-62
2022/05/06 02:59:41;;;;;;;7.00;6.40;;;;;;;13.23;57.16;95504.78;4978677;28;20216;-62
2022/05/06 03:02:06;;;;;;;7.63;6.88;;;;;;;13.24;57.18;95510.88;4975993;28;20303;-62
2022/05/06 03:04:32;;;;;;;7.30;6.57;;;;;;;13.18;57.21;95509.69;4977004;28;20228;-63
2022/05/06 03:06:58;;;;;;;7.10;6.40;;;;;;;13.22;57.13;95507.56;4982623;28;20224;-62
2022/05/06 03:09:24;;;;;;;7.80;6.85;;;;;;;13.27;57.23;95515.06;4977959;28;20220;-62
2022/05/06 03:11:49;;;;;;;7.70;6.80;;;;;;;13.22;56.78;95510.22;4966518;28;20219;-63
2022/05/06 03:14:15;;;;;;;7.78;6.55;;;;;;;13.24;56.86;95517.00;4964281;28;20229;-63
2022/05/06 03:16:41;;;;;;;6.90;6.30;;;;;;;13.15;56.87;95510.03;4961968;28;20260;-63
2022/05/06 03:19:06;;;;;;;7.18;6.60;;;;;;;13.13;57.09;95511.97;4976017;28;20231;-64
2022/05/06 03:21:32;;;;;;;7.05;6.40;;;;;;;13.14;56.78;95515.44;4961104;28;20204;-63
2022/05/06 03:23:59;;;;;;;7.35;6.60;;;;;;;13.11;56.68;95516.56;4964084;28;20735;-63
2022/05/06 03:26:25;;;;;;;7.35;6.65;;;;;;;13.11;56.63;95513.13;4965822;28;20229;-63
2022/05/06 03:28:53;;;;;;;6.75;6.22;;;;;;;13.17;56.50;95520.41;4951008;28;20286;-63
2022/05/06 03:31:18;;;;;;;6.55;5.95;;;;;;;13.14;56.75;95526.81;4949483;28;20233;-63
2022/05/06 03:33:45;;;;;;;7.53;6.78;;;;;;;13.22;56.22;95533.97;4965962;28;20243;-64
2022/05/06 03:36:11;;;;;;;7.32;6.63;;;;;;;13.13;56.88;95529.63;4952457;28;20298;-63
2022/05/06 03:38:36;;;;;;;7.30;6.57;;;;;;;13.04;56.95;95528.72;4968419;28;20229;-63
2022/05/06 03:41:02;;;;;;;6.70;6.20;;;;;;;13.09;56.48;95538.84;4969997;28;20249;-63
2022/05/06 03:43:28;;;;;;;8.32;6.65;;;;;;;13.08;56.10;95537.19;4975833;28;20320;-63
2022/05/06 03:45:54;;;;;;;7.93;6.68;;;;;;;13.13;56.53;95545.47;4978399;28;20239;-63
2022/05/06 03:48:24;;;;;;;6.90;6.25;;;;;;;13.01;56.53;95544.88;4970719;28;20503;-63
2022/05/06 03:53:34;;;;;;;8.07;6.68;;;;;;;13.01;56.64;95544.88;4965673;28;20250;-62
2022/05/06 03:56:00;;;;;;;6.90;6.20;;;;;;;13.00;57.07;95541.41;4971005;28;20219;-63
2022/05/06 03:58:25;;;;;;;6.88;6.28;;;;;;;12.98;57.26;95550.47;4978587;28;20255;-63
2022/05/06 04:00:54;;;;;;;6.88;6.13;;;;;;;12.96;57.17;95553.28;4959627;28;20283;-66
2022/05/06 04:03:19;;;;;;;8.43;6.70;;;;;;;12.97;57.15;95556.75;4970869;28;20204;-63
2022/05/06 04:05:45;;;;;;;7.03;6.30;;;;;;;12.97;56.92;95556.75;4973668;28;20231;-61
2022/05/06 04:08:10;;;;;;;8.68;6.55;;;;;;;13.01;56.80;95552.81;4960480;28;20232;-61
2022/05/06 04:10:36;;;;;;;6.82;6.22;;;;;;;13.00;56.98;95559.06;4967691;28;20251;-61
2022/05/06 04:13:02;;;;;;;6.95;6.28;;;;;;;13.10;56.72;95559.81;4972838;28;20228;-61
2022/05/06 04:15:28;;;;;;;8.15;6.43;;;;;;;13.11;56.66;95553.53;4976190;28;20223;-61
2022/05/06 04:17:54;;;;;;;7.35;6.72;;;;;;;13.14;56.47;95552.41;4959666;28;20204;-61
2022/05/06 04:25:47;;;;;;;8.20;6.45;;;;;;;13.22;56.11;95552.47;4972176;28;20230;-61
2022/05/06 04:28:13;;;;;;;8.23;6.32;;;;;;;13.27;56.31;95552.03;4970991;28;20223;-61
2022/05/06 04:30:38;;;;;;;8.63;6.40;;;;;;;13.19;56.34;95555.41;4955457;28;20317;-61
2022/05/06 04:33:04;;;;;;;7.40;6.70;;;;;;;13.25;55.96;95560.06;4977707;28;20211;-61
2022/05/06 04:35:30;;;;;;;8.38;7.05;;;;;;;13.33;56.09;95567.25;4977174;28;20302;-61
2022/05/06 04:37:55;;;;;;;8.93;6.60;;;;;;;13.33;55.40;95568.06;4975604;28;20243;-61
2022/05/06 04:40:21;;;;;;;9.88;6.90;;;;;;;13.39;55.73;95571.91;4966702;28;20255;-61
2022/05/06 04:42:46;;;;;;;8.05;6.22;;;;;;;13.40;55.83;95570.94;4971582;28;20231;-62
2022/05/06 04:45:12;;;;;;;7.30;6.68;;;;;;;13.45;55.56;95580.06;4975371;28;20198;-61
2022/05/06 04:47:37;;;;;;;8.65;6.75;;;;;;;13.48;55.25;95580.72;4971923;28;20220;-60
2022/05/06 04:50:04;;;;;;;9.80;7.60;;;;;;;13.48;55.21;95578.91;4972427;28;20236;-60
2022/05/06 04:52:32;;;;;;;7.70;6.93;;;;;;;13.54;55.05;95574.81;4984488;28;20225;-61
2022/05/06 04:54:57;;;;;;;7.80;6.82;;;;;;;13.60;54.82;95579.47;4977490;28;20251;-61
2022/05/06 04:57:23;;;;;;;11.52;7.32;;;;;;;13.61;54.92;95586.44;4974680;28;20245;-61
2022/05/06 04:59:48;;;;;;;9.55;7.50;;;;;;;13.63;54.91;95576.50;4975770;28;20231;-61
2022/05/06 05:02:17;;;;;;;7.70;6.93;;;;;;;13.62;55.07;95588.06;4979188;28;20230;-61
2022/05/06 05:04:43;;;;;;;10.98;7.55;;;;;;;13.68;54.77;95584.81;4974232;28;20260;-61
2022/05/06 05:07:10;;;;;;;9.77;6.93;;;;;;;13.73;54.71;95594.91;4968798;28;20216;-61
2022/05/06 05:09:35;;;;;;;9.40;6.35;;;;;;;13.78;54.30;95584.69;4962302;28;20263;-61
2022/05/06 05:12:00;;;;;;;6.90;6.40;;;;;;;13.86;54.19;95590.84;4972691;28;20208;-61
2022/05/06 05:14:26;;;;;;;7.40;6.57;;;;;;;13.93;54.00;95606.91;4978178;28;20246;-61
2022/05/06 05:16:51;;;;;;;9.60;6.88;;;;;;;13.98;53.61;95607.28;4986512;28;20383;-61
2022/05/06 05:19:17;;;;;;;7.30;6.57;;;;;;;14.02;53.66;95602.50;4972597;28;20239;-61
2022/05/06 05:21:42;;;;;;;7.95;6.93;;;;;;;14.04;53.70;95597.88;4982606;28;20205;-61
2022/05/06 05:24:08;;;;;;;9.68;7.57;;;;;;;13.97;54.05;95599.50;4974841;28;20247;-61
2022/05/06 05:26:34;;;;;;;8.25;6.95;;;;;;;13.54;55.62;95602.06;4972492;28;20324;-61
2022/05/06 05:29:00;;;;;;;10.43;8.27;;;;;;;13.74;55.57;95599.19;4969026;28;20224;-61
2022/05/06 05:31:26;;;;;;;9.77;8.88;;;;;;;13.74;56.15;95601.84;4967305;28;20228;-61
2022/05/06 05:33:54;;;;;;;13.93;8.77;;;;;;;13.81;55.87;95594.94;4973798;28;20229;-61
2022/05/06 05:36:20;;;;;;;9.90;8.90;;;;;;;13.87;55.32;95604.88;4984339;28;20216;-61
2022/05/06 05:38:45;;;;;;;9.70;8.68;;;;;;;13.87;55.96;95602.25;4991144;28;20278;-61
2022/05/06 05:41:11;;;;;;;11.45;9.93;;;;;;;13.89;56.09;95598.44;4989545;28;20285;-61
2022/05/06 05:49:05;;;;;;;13.00;10.40;;;;;;;14.09;55.30;95595.59;4975115;28;20246;-61
2022/05/06 05:51:32;;;;;;;12.88;9.98;;;;;;;14.17;54.88;95600.09;4969690;28;20247;-61
2022/05/06 05:53:58;;;;;;;10.85;9.48;;;;;;;14.28;54.43;95589.22;4973525;28;20200;-62
2022/05/06 05:56:23;;;;;;;10.10;9.23;;;;;;;14.10;55.00;95591.94;4966466;28;20224;-61
2022/05/06 05:58:51;;;;;;;10.25;8.60;;;;;;;13.93;54.86;95591.06;4963209;28;20286;-60
2022/05/06 06:01:17;;;;;;;9.68;8.45;;;;;;;14.20;54.37;95590.00;4969976;28;20224;-60
2022/05/06 06:03:43;;;;;;;14.63;8.48;;;;;;;14.17;55.00;95592.16;4961424;28;20208;-61
2022/05/06 06:06:09;;;;;;;9.43;8.50;;;;;;;14.51;54.17;95594.72;4981135;28;20207;-63
2022/05/06 06:08:35;;;;;;;8.57;7.68;;;;;;;14.71;53.12;95582.88;4973452;28;20274;-61
2022/05/06 06:11:01;;;;;;;9.15;7.20;;;;;;;14.93;52.51;95589.34;4969111;28;20231;-61
2022/05/06 06:13:30;;;;;;;8.35;7.05;;;;;;;15.13;52.32;95586.38;4962826;28;20231;-61
2022/05/06 06:15:56;;;;;;;9.23;7.45;;;;;;;15.30;51.60;95590.69;4963826;28;20243;-63
2022/05/06 06:18:26;;;;;;;10.85;8.23;;;;;;;15.44;51.38;95582.03;4963511;28;20209;-63
2022/05/06 06:20:53;;;;;;;13.38;10.63;;;;;;;15.51;50.95;95587.50;4976104;28;20269;-61
2022/05/06 06:23:19;;;;;;;16.88;10.88;;;;;;;15.56;51.15;95584.38;4973056;28;20221;-61
2022/05/06 06:25:45;;;;;;;14.48;12.07;;;;;;;15.69;50.96;95586.50;4958507;28;20231;-61
2022/05/06 06:28:10;;;;;;;17.65;12.82;;;;;;;15.81;50.37;95596.59;4953912;28;20251;-62
2022/05/06 06:30:36;;;;;;;18.50;12.85;;;;;;;15.67;51.10;95589.31;4948251;28;20691;-61
2022/05/06 06:33:01;;;;;;;20.13;13.63;;;;;;;15.78;50.50;95594.28;4961395;28;20228;-62
2022/05/06 06:35:27;;;;;;;17.25;12.88;;;;;;;15.81;50.21;95583.31;4949284;28;20233;-62
2022/05/06 06:37:52;;;;;;;20.70;13.98;;;;;;;15.91;50.09;95582.31;4961738;28;20219;-61
2022/05/06 06:40:18;;;;;;;20.08;13.23;;;;;;;16.08;49.67;95579.41;4953414;28;20229;-61
2022/05/06 06:42:45;;;;;;;20.70;12.32;;;;;;;16.06;49.27;95567.31;4944772;28;20229;-61
2022/05/06 06:45:11;;;;;;;18.63;12.02;;;;;;;16.08;49.44;95584.72;4953416;28;20432;-61
2022/05/06 06:47:37;;;;;;;14.18;11.50;;;;;;;16.08;49.49;95568.81;4947169;28;20231;-61
2022/05/06 06:50:03;;;;;;;19.85;11.73;;;;;;;16.17;49.27;95580.22;4959435;28;20229;-62
2022/05/06 06:52:29;;;;;;;13.38;10.32;;;;;;;16.14;48.36;95579.72;4940912;28;20229;-62
2022/05/06 06:54:57;;;;;;;14.85;10.43;;;;;;;16.13;48.82;95578.91;4955932;28;20233;-62
2022/05/06 06:57:22;;;;;;;12.90;9.98;;;;;;;16.16;48.21;95577.75;4951937;28;20208;-61
2022/05/06 06:59:48;;;;;;;14.07;9.38;;;;;;;16.20;47.47;95579.03;4958693;28;20328;-62
2022/05/06 07:02:13;;;;;;;12.57;9.10;;;;;;;16.24;47.64;95578.53;4953721;28;20228;-62
2022/05/06 07:04:39;;;;;;;11.50;8.02;;;;;;;16.29;47.43;95576.19;4964917;28;20569;-62
2022/05/06 07:12:32;;;;;;;7.75;6.63;;;;;;;16.47;47.31;95580.41;4951540;28;20304;-66
2022/05/06 07:14:58;;;;;;;7.35;6.60;;;;;;;16.61;46.66;95574.34;4963101;28;20294;-67
2022/05/06 07:17:24;;;;;;;6.82;6.05;;;;;;;16.65;46.85;95573.00;4957307;28;20225;-66
2022/05/06 07:19:49;;;;;;;6.55;5.90;;;;;;;16.75;45.99;95573.59;4950827;28;20244;-66
2022/05/06 07:22:15;;;;;;;7.25;6.20;;;;;;;16.93;45.19;95572.53;4946245;28;20664;-68
2022/05/06 07:24:40;;;;;;;10.77;6.70;;;;;;;16.66;45.71;95579.97;4951463;28;20213;-66
2022/05/06 07:27:07;;;;;;;6.75;5.97;;;;;;;16.91;45.27;95580.66;4962839;28;20200;-67
2022/05/06 07:29:33;;;;;;;6.80;5.70;;;;;;;17.06;45.71;95574.59;4951700;28;20229;-66
2022/05/06 07:31:59;;;;;;;6.68;5.97;;;;;;;17.25;44.91;95573.25;4966010;28;20248;-66
2022/05/06 07:34:24;;;;;;;6.55;5.85;;;;;;;17.29;44.64;95575.34;4957097;28;20236;-66
2022/05/06 07:36:49;;;;;;;7.60;6.43;;;;;;;17.36;44.60;95573.66;4950986;28;20226;-67
2022/05/06 07:39:16;;;;;;;6.00;5.50;;;;;;;17.43;44.04;95568.44;4949867;28;20208;-67
2022/05/06 07:41:43;;;;;;;8.38;6.45;;;;;;;17.45;44.52;95571.72;4957373;28;20237;-67
2022/05/06 07:44:09;;;;;;;7.85;6.60;;;;;;;17.60;44.05;95575.25;4970414;28;20323;-66
2022/05/06 07:46:35;;;;;;;7.53;6.78;;;;;;;17.70;44.05;95574.19;4938586;28;20368;-66
2022/05/06 07:49:02;;;;;;;6.30;5.57;;;;;;;17.87;43.65;95575.66;4938081;28;20225;-67
2022/05/06 07:51:28;;;;;;;8.95;6.50;;;;;;;17.76;43.83;95574.25;4962151;28;20208;-66
2022/05/06 07:53:55;;;;;;;8.80;6.35;;;;;;;17.94;43.46;95573.94;4945882;28;20205;-67
2022/05/06 07:56:26;;;;;;;7.90;6.75;;;;;;;17.75;43.77;95569.09;4938357;28;20236;-67
2022/05/06 07:58:52;;;;;;;9.82;6.47;;;;;;;17.93;43.60;95572.25;4955624;28;20272;-67
2022/05/06 08:04:32;;;;;;;7.43;5.63;;;;;;;18.16;43.86;95566.03;4964837;28;20552;-67
2022/05/06 08:06:52;;;;;;;9.15;6.15;;;;;;;18.24;42.73;95569.41;4946450;28;20307;-67
2022/05/06 08:09:18;;;;;;;7.75;5.97;;;;;;;18.34;43.27;95566.47;4947280;28;20294;-66
2022/05/06 08:11:43;;;;;;;12.60;6.28;;;;;;;18.54;42.86;95566.69;4955814;28;20346;-65
2022/05/06 08:14:09;;;;;;;7.03;6.32;;;;;;;18.52;43.16;95563.38;4943658;28;20232;-68
2022/05/06 08:16:34;;;;;;;7.20;5.72;;;;;;;18.77;41.59;95568.41;4952284;28;20685;-65
2022/05/06 08:19:00;;;;;;;7.68;5.15;;;;;;;18.69;41.88;95564.00;4953415;28;20228;-67
2022/05/06 08:21:25;;;;;;;10.13;6.18;;;;;;;18.76;41.92;95556.09;4958016;28;20232;-65
2022/05/06 08:23:52;;;;;;;7.38;6.53;;;;;;;18.92;42.77;95554.03;4955727;28;20208;-66
2022/05/06 08:26:18;;;;;;;10.82;5.82;;;;;;;19.04;42.10;95558.84;4955448;28;20228;-67
2022/05/06 08:28:44;;;;;;;7.20;6.47;;;;;;;19.02;41.99;95551.03;4966087;28;20346;-67
2022/05/06 08:31:10;;;;;;;9.68;5.80;;;;;;;19.15;41.66;95560.97;4952325;28;20228;-66
2022/05/06 08:33:35;;;;;;;8.93;5.90;;;;;;;19.23;41.31;95563.50;4959226;28;20239;-67
2022/05/06 08:36:00;;;;;;;6.75;5.97;;;;;;;19.29;41.06;95553.91;4955358;28;20231;-66
2022/05/06 08:38:26;;;;;;;8.25;6.38;;;;;;;19.28;41.28;95562.94;4958265;28;20227;-67
2022/05/06 08:40:52;;;;;;;7.35;5.85;;;;;;;19.38;41.73;95548.25;4959159;28;20232;-68
2022/05/06 08:43:17;;;;;;;8.30;5.20;;;;;;;19.53;41.51;95550.00;4964428;28;20231;-67
2022/05/06 08:51:13;;;;;;;4.82;4.40;;;;;;;19.78;40.71;95547.72;4968012;28;20223;-66
2022/05/06 08:53:40;;;;;;;6.40;4.57;;;;;;;19.71;40.69;95550.38;4968510;28;20223;-65
2022/05/06 08:56:06;;;;;;;6.95;4.57;;;;;;;19.87;40.08;95553.75;4979961;28;20235;-66
2022/05/06 08:58:37;;;;;;;4.90;4.43;;;;;;;20.03;40.50;95554.25;4977921;28;20220;-68
2022/05/06 09:01:10;;;;;;;4.72;4.30;;;;;;;20.08;39.71;95555.50;4973776;28;20357;-66
2022/05/06 09:03:43;;;;;;;5.13;4.40;;;;;;;20.22;39.02;95555.38;4981214;28;20255;-67
2022/05/06 09:06:20;;;;;;;4.38;3.72;;;;;;;20.16;38.99;95553.50;4964432;28;20216;-67
2022/05/06 09:08:47;;;;;;;4.70;3.63;;;;;;;20.24;38.56;95556.00;4984712;28;20236;-67
2022/05/06 09:11:16;;;;;;;4.35;3.95;;;;;;;20.23;39.62;95557.03;4968135;28;20255;-68
2022/05/06 09:13:55;;;;;;;4.43;3.85;;;;;;;20.42;38.95;95541.25;4974112;28;20247;-67
2022/05/06 09:16:40;;;;;;;6.80;4.07;;;;;;;20.43;38.99;95538.41;4974716;28;20251;-68
2022/05/06 09:19:17;;;;;;;4.50;4.05;;;;;;;20.66;38.96;95539.94;4966776;28;20239;-68
2022/05/06 09:22:27;;;;;;;4.63;3.97;;;;;;;20.74;37.61;95538.91;4971025;28;20204;-68
2022/05/06 09:24:53;;;;;;;5.80;3.88;;;;;;;20.82;36.53;95536.91;4950294;28;20228;-68
2022/05/06 09:27:21;;;;;;;5.05;3.70;;;;;;;20.77;36.76;95519.81;4952642;28;20236;-68
2022/05/06 09:29:51;;;;;;;5.72;3.65;;;;;;;20.82;36.60;95518.19;4950141;28;20217;-68
2022/05/06 09:32:27;;;;;;;5.63;4.10;;;;;;;20.63;37.85;95524.31;4950514;28;20284;-68
2022/05/06 09:35:09;;;;;;;6.63;4.25;;;;;;;20.72;36.74;95528.44;4938230;29;20273;-67
2022/05/06 09:37:36;;;;;;;5.15;3.78;;;;;;;20.76;36.73;95518.16;4941699;28;20232;-67
2022/05/06 09:40:13;;;;;;;7.95;3.95;;;;;;;20.75;36.43;95511.19;4951116;28;20330;-68
2022/05/06 09:42:55;;;;;;;4.22;3.90;;;;;;;20.81;36.49;95511.19;4936773;28;20263;-67
2022/05/06 09:45:38;;;;;;;5.05;3.80;;;;;;;20.85;36.39;95511.59;4949832;29;20205;-67
2022/05/06 09:48:06;;;;;;;4.55;4.15;;;;;;;20.97;35.65;95504.63;4952721;28;20417;-68
2022/05/06 09:50:36;;;;;;;4.10;3.70;;;;;;;21.01;35.03;95510.38;4943548;28;20225;-68
2022/05/06 09:53:03;;;;;;;4.80;3.80;;;;;;;21.11;34.71;95508.13;4957482;28;20228;-68
2022/05/06 09:55:30;;;;;;;4.47;4.18;;;;;;;21.20;34.62;95503.38;4961314;28;20226;-67
2022/05/06 09:57:57;;;;;;;6.93;4.28;;;;;;;21.21;35.14;95508.53;4982354;28;20223;-69
2022/05/06 10:00:23;;;;;;;5.95;3.88;;;;;;;21.25;34.30;95509.78;4981094;28;20220;-67
2022/05/06 10:02:48;;;;;;;4.18;3.60;;;;;;;21.19;33.72;95501.75;4980849;28;20231;-67
2022/05/06 10:05:14;;;;;;;5.32;4.40;;;;;;;21.36;33.49;95503.00;4982787;28;20255;-67
2022/05/06 10:07:42;;;;;;;4.25;3.60;;;;;;;21.35;34.41;95507.50;4967816;28;20224;-66
2022/05/06 10:10:12;;;;;;;4.45;4.05;;;;;;;21.38;33.92;95506.28;4977708;28;20223;-68
2022/05/06 10:12:41;;;;;;;4.70;4.30;;;;;;;21.44;33.29;95500.13;4973434;28;20208;-67
2022/05/06 10:15:09;;;;;;;4.13;3.72;;;;;;;21.48;33.46;95504.03;4956999;28;20220;-67
2022/05/06 10:17:53;;;;;;;4.70;3.83;;;;;;;21.66;32.34;95498.03;4962378;28;20248;-66
2022/05/06 10:20:33;;;;;;;3.83;3.53;;;;;;;21.67;32.30;95501.53;4980442;28;20224;-67
2022/05/06 10:23:11;;;;;;;3.50;3.20;;;;;;;21.66;32.12;95505.25;4966833;28;20232;-67
2022/05/06 10:25:40;;;;;;;8.35;3.78;;;;;;;21.70;31.74;95498.44;4967318;28;20219;-68
2022/05/06 10:34:15;;;;;;;4.05;3.53;;;;;;;21.75;31.33;95493.28;4969819;28;20278;-68
2022/05/06 10:36:47;;;;;;;4.35;3.40;;;;;;;21.87;31.39;95494.28;4972444;28;20215;-67
2022/05/06 10:39:36;;;;;;;3.92;3.40;;;;;;;21.92;31.02;95490.97;4980117;28;20223;-66
2022/05/06 10:42:01;;;;;;;3.95;3.35;;;;;;;21.98;30.71;95492.81;4976692;28;20231;-67
2022/05/06 10:44:36;;;;;;;4.18;3.72;;;;;;;22.03;30.40;95476.94;4981543;28;20224;-67
2022/05/06 10:47:11;;;;;;;4.55;3.40;;;;;;;22.00;30.14;95480.84;4967922;28;20311;-67
2022/05/06 10:49:40;;;;;;;3.83;3.53;;;;;;;22.11;30.46;95483.91;4964033;28;20293;-66
2022/05/06 10:52:22;;;;;;;3.70;3.17;;;;;;;22.18;30.65;95482.00;4965576;28;20279;-69
2022/05/06 10:54:55;;;;;;;4.20;3.42;;;;;;;22.33;30.29;95479.91;4979837;28;20220;-67
2022/05/06 10:57:28;;;;;;;3.72;3.13;;;;;;;22.44;29.43;95481.09;4960796;28;20253;-67
2022/05/06 10:59:56;;;;;;;3.17;2.88;;;;;;;22.50;29.01;95479.41;4976138;28;20311;-66
2022/05/06 11:02:27;;;;;;;3.20;3.00;;;;;;;22.54;29.26;95469.94;4972294;28;20254;-67
2022/05/06 11:05:03;;;;;;;4.03;3.20;;;;;;;22.52;29.03;95467.44;4971397;28;20263;-67
2022/05/06 11:07:31;;;;;;;3.90;3.33;;;;;;;22.76;29.98;95467.72;4971560;28;20223;-66
2022/05/06 11:09:57;;;;;;;5.18;3.40;;;;;;;22.79;28.59;95461.91;4968800;28;20248;-66
2022/05/06 11:12:48;;;;;;;4.63;3.15;;;;;;;22.81;28.71;95460.66;4968257;28;20207;-67
2022/05/06 11:15:20;;;;;;;4.20;3.17;;;;;;;22.68;28.74;95458.88;4964328;28;20220;-67
2022/05/06 11:17:47;;;;;;;3.10;2.85;;;;;;;22.86;28.51;95462.69;4974478;28;20224;-66
2022/05/06 11:20:22;;;;;;;4.90;2.92;;;;;;;23.02;28.93;95451.47;4979016;28;20225;-67
2022/05/06 11:22:51;;;;;;;3.15;2.85;;;;;;;22.98;28.21;95444.06;4986654;28;20322;-67
2022/05/06 11:25:17;;;;;;;3.20;2.83;;;;;;;22.96;27.73;95446.97;4963235;28;20300;-68
2022/05/06 11:27:42;;;;;;;3.97;2.40;;;;;;;23.03;27.28;95441.56;4968785;28;20311;-67
2022/05/06 11:30:09;;;;;;;4.35;2.78;;;;;;;23.16;27.04;95444.13;4972266;28;20426;-65
2022/05/06 11:32:35;;;;;;;5.50;2.70;;;;;;;23.42;26.95;95444.94;4970070;28;20229;-65
2022/05/06 11:35:10;;;;;;;2.83;2.60;;;;;;;23.37;26.89;95450.13;4970781;28;20236;-66
2022/05/06 11:37:40;;;;;;;3.15;2.75;;;;;;;23.35;26.77;95442.28;4973904;28;20220;-65
2022/05/06 11:42:50;;;;;;;2.70;2.50;;;;;;;23.36;26.38;95437.75;4962518;28;20247;-67
2022/05/06 11:48:08;;;;;;;4.97;2.40;;;;;;;23.53;25.30;95434.28;4962521;28;20313;-66
2022/05/06 11:50:35;;;;;;;3.60;2.40;;;;;;;23.64;24.98;95437.25;4978411;28;20246;-67
2022/05/06 11:53:04;;;;;;;3.97;2.42;;;;;;;23.68;24.63;95439.28;4974192;28;20227;-67
2022/05/06 11:55:31;;;;;;;3.30;2.35;;;;;;;23.86;24.66;95432.28;4994648;28;20217;-67
2022/05/06 11:57:57;;;;;;;3.83;2.30;;;;;;;23.90;24.37;95430.81;4975513;28;20321;-67
2022/05/06 12:00:23;;;;;;;2.95;2.33;;;;;;;24.05;23.56;95425.03;4968914;28;20256;-67
2022/05/06 12:02:51;;;;;;;4.90;2.15;;;;;;;24.19;23.58;95421.13;4967371;28;20231;-67
2022/05/06 12:05:17;;;;;;;5.03;2.72;;;;;;;24.36;24.15;95415.97;4971759;28;20227;-67
2022/05/06 12:07:47;;;;;;;3.00;2.13;;;;;;;24.58;23.57;95417.09;4957686;28;20258;-66
2022/05/06 12:10:27;;;;;;;3.70;2.35;;;;;;;24.65;22.33;95417.00;4946651;28;20217;-66
2022/05/06 12:13:06;;;;;;;3.28;2.50;;;;;;;24.88;22.51;95402.78;4951362;28;20234;-67
2022/05/06 12:15:38;;;;;;;2.38;2.20;;;;;;;25.14;21.86;95404.22;4965456;28;20203;-67
2022/05/06 12:18:04;;;;;;;3.78;2.40;;;;;;;25.16;22.09;95409.41;4959307;28;20214;-67
2022/05/06 12:20:37;;;;;;;3.40;2.30;;;;;;;25.64;21.63;95400.25;4968695;28;20224;-67